Time;durP1;ratioP1;P1;durP2;ratioP2;P2;SDS_P1;SDS_P2;PMS_P1;PMS_P2;Temp;Humidity;BMP_temperature;BMP_pressure;BME280_temperature;BME280_humidity;BME280_pressure;Samples;Min_cycle;Max_cycle;Signal;HPM_P1;HPM_P2
2022/05/06 00:00:06;;;;;;;42.00;29.63;;;11.80;99.90;;;;;;5119146;27;20281;-69
2022/05/06 00:02:32;;;;;;;40.57;30.03;;;11.80;99.90;;;;;;5136745;27;20288;-69
2022/05/06 00:04:58;;;;;;;39.73;29.23;;;11.70;99.90;;;;;;5118801;27;20283;-69
2022/05/06 00:07:24;;;;;;;39.20;29.73;;;11.70;99.90;;;;;;5136787;27;20039;-69
2022/05/06 00:09:49;;;;;;;40.60;29.27;;;11.70;99.90;;;;;;5136940;27;20062;-69
2022/05/06 00:12:18;;;;;;;42.50;29.10;;;11.70;99.90;;;;;;5136993;27;20498;-69
2022/05/06 00:14:45;;;;;;;40.57;30.53;;;11.70;99.90;;;;;;5136771;27;20035;-69
2022/05/06 00:17:11;;;;;;;42.40;32.00;;;11.70;99.90;;;;;;5118728;27;20853;-69
2022/05/06 00:19:36;;;;;;;39.57;29.80;;;11.60;99.90;;;;;;5135350;27;20363;-69
2022/05/06 00:22:03;;;;;;;42.60;30.67;;;11.60;99.90;;;;;;5135680;27;20042;-69
2022/05/06 00:24:29;;;;;;;41.57;30.13;;;11.60;99.90;;;;;;5136433;27;20085;-69
2022/05/06 00:26:58;;;;;;;42.53;31.57;;;11.60;99.90;;;;;;5136577;27;20661;-69
2022/05/06 00:29:24;;;;;;;39.27;29.87;;;11.60;99.90;;;;;;5135234;27;20394;-69
2022/05/06 00:31:50;;;;;;;41.57;29.10;;;11.60;99.90;;;;;;5136622;27;20280;-69
2022/05/06 00:34:16;;;;;;;40.20;30.33;;;11.50;99.90;;;;;;5136465;27;20392;-69
2022/05/06 00:36:42;;;;;;;38.00;30.50;;;11.50;99.90;;;;;;5136112;27;20320;-69
2022/05/06 00:39:08;;;;;;;46.70;32.47;;;11.50;99.90;;;;;;5136440;27;20047;-69
2022/05/06 00:41:35;;;;;;;48.63;32.77;;;11.50;99.90;;;;;;5136043;27;20744;-70
2022/05/06 00:44:01;;;;;;;46.07;33.80;;;11.40;99.90;;;;;;5136392;27;20086;-69
2022/05/06 00:46:27;;;;;;;44.97;31.00;;;11.40;99.90;;;;;;5135934;27;20269;-69
2022/05/06 00:48:55;;;;;;;45.70;32.40;;;11.40;99.90;;;;;;5136445;27;20269;-69
2022/05/06 00:51:20;;;;;;;43.63;31.67;;;11.40;99.90;;;;;;5136188;27;20082;-69
2022/05/06 00:53:47;;;;;;;44.13;32.43;;;11.40;99.90;;;;;;5135491;27;20347;-69
2022/05/06 00:56:15;;;;;;;46.83;32.20;;;11.30;99.90;;;;;;5135260;27;20406;-69
2022/05/06 00:58:44;;;;;;;42.87;31.27;;;11.30;99.90;;;;;;5135118;27;20316;-69
2022/05/06 01:01:10;;;;;;;39.93;30.20;;;11.30;99.90;;;;;;5135060;27;20312;-69
2022/05/06 01:03:35;;;;;;;41.23;30.23;;;11.30;99.90;;;;;;5135576;27;20311;-69
2022/05/06 01:06:07;;;;;;;38.63;28.87;;;11.30;99.90;;;;;;5135855;27;20054;-69
2022/05/06 01:08:34;;;;;;;40.63;29.53;;;11.30;99.90;;;;;;5135648;27;20103;-69
2022/05/06 01:11:00;;;;;;;35.30;26.70;;;11.20;99.90;;;;;;5135784;27;20714;-69
2022/05/06 01:13:27;;;;;;;36.93;26.10;;;11.20;99.90;;;;;;5134144;27;20340;-70
2022/05/06 01:15:56;;;;;;;33.50;26.07;;;11.20;99.90;;;;;;5134401;27;20475;-69
2022/05/06 01:18:22;;;;;;;33.60;25.23;;;11.20;99.90;;;;;;5135802;27;20305;-69
2022/05/06 01:20:54;;;;;;;34.40;25.57;;;11.10;99.90;;;;;;5135252;27;20273;-69
2022/05/06 01:23:23;;;;;;;31.63;24.57;;;11.10;99.90;;;;;;5134538;27;20760;-69
2022/05/06 01:25:50;;;;;;;37.37;26.07;;;11.00;99.90;;;;;;5135256;27;20289;-70
2022/05/06 01:28:16;;;;;;;47.57;30.47;;;11.00;99.90;;;;;;5135479;27;20276;-70
2022/05/06 01:30:47;;;;;;;46.17;31.17;;;11.10;99.90;;;;;;5134025;27;20364;-70
2022/05/06 01:33:16;;;;;;;45.70;31.77;;;11.10;99.90;;;;;;5135533;27;20342;-69
2022/05/06 01:35:45;;;;;;;44.87;31.77;;;11.00;99.90;;;;;;5133758;27;20280;-70
2022/05/06 01:38:40;;;;;;;40.37;29.73;;;11.00;99.90;;;;;;5134502;27;20334;-70
2022/05/06 01:41:23;;;;;;;166.90;33.67;;;11.00;99.90;;;;;;5135293;27;20284;-69
2022/05/06 01:43:55;;;;;;;114.43;30.07;;;11.00;99.90;;;;;;5134764;27;20745;-69
2022/05/06 01:46:25;;;;;;;67.03;29.90;;;10.90;99.90;;;;;;5134995;27;20281;-69
2022/05/06 01:48:51;;;;;;;151.70;29.53;;;10.80;99.90;;;;;;5134353;27;20280;-69
2022/05/06 01:51:19;;;;;;;74.20;27.87;;;10.80;99.90;;;;;;5134605;27;20768;-69
2022/05/06 01:53:45;;;;;;;100.17;30.43;;;10.80;99.90;;;;;;5134170;27;20315;-69
2022/05/06 01:56:11;;;;;;;53.77;31.47;;;10.80;99.90;;;;;;5134181;27;20289;-69
2022/05/06 01:58:38;;;;;;;46.17;29.87;;;10.90;99.90;;;;;;5133559;27;20100;-69
2022/05/06 02:01:04;;;;;;;35.90;27.80;;;10.90;99.90;;;;;;5133822;27;20284;-69
2022/05/06 02:06:14;;;;;;;30.07;24.47;;;11.00;99.90;;;;;;5134415;27;20498;-69
2022/05/06 02:08:40;;;;;;;28.97;24.47;;;11.00;99.90;;;;;;5133316;27;20276;-69
2022/05/06 02:11:06;;;;;;;30.57;25.00;;;10.90;99.90;;;;;;5133397;27;20054;-69
2022/05/06 02:13:33;;;;;;;30.23;25.20;;;11.00;99.90;;;;;;5134184;27;20486;-70
2022/05/06 02:15:59;;;;;;;28.57;23.93;;;11.00;99.90;;;;;;5134563;27;20351;-69
2022/05/06 02:18:26;;;;;;;29.70;23.60;;;10.90;99.90;;;;;;5133281;27;20276;-69
2022/05/06 02:20:55;;;;;;;27.33;22.87;;;11.00;99.90;;;;;;5133108;27;20293;-69
2022/05/06 02:23:20;;;;;;;27.67;22.03;;;11.00;99.90;;;;;;5133412;27;20316;-69
2022/05/06 02:25:47;;;;;;;29.93;23.53;;;11.10;99.90;;;;;;5133061;27;20803;-69
2022/05/06 02:28:14;;;;;;;28.80;22.47;;;11.10;99.90;;;;;;5133319;27;20380;-69
2022/05/06 02:33:25;;;;;;;28.73;21.65;;;11.10;99.90;;;;;;5133291;27;20301;-69
2022/05/06 02:35:52;;;;;;;28.03;22.27;;;11.20;99.90;;;;;;5133912;27;20079;-69
2022/05/06 02:38:18;;;;;;;34.00;23.00;;;11.10;99.90;;;;;;5134156;27;20280;-69
2022/05/06 02:40:44;;;;;;;33.03;23.67;;;11.10;99.90;;;;;;5133872;27;20704;-69
2022/05/06 02:43:10;;;;;;;34.03;23.50;;;11.20;99.90;;;;;;5116026;27;20289;-69
2022/05/06 02:45:36;;;;;;;40.43;26.13;;;11.20;99.90;;;;;;5133807;27;20054;-70
2022/05/06 02:48:03;;;;;;;39.33;24.83;;;11.20;99.90;;;;;;5134053;27;20047;-69
2022/05/06 02:50:28;;;;;;;38.93;25.87;;;11.20;99.90;;;;;;5132993;27;20051;-69
2022/05/06 02:52:54;;;;;;;46.13;27.97;;;11.20;99.90;;;;;;5132596;27;20307;-69
2022/05/06 02:55:22;;;;;;;47.50;28.40;;;11.20;99.90;;;;;;5134022;27;20059;-69
2022/05/06 02:57:47;;;;;;;44.53;27.20;;;11.10;99.90;;;;;;5132553;27;20051;-69
2022/05/06 03:00:14;;;;;;;38.77;26.37;;;11.10;99.90;;;;;;5133688;28;20276;-69
2022/05/06 03:02:40;;;;;;;46.70;28.03;;;11.20;99.90;;;;;;5133663;28;20051;-69
2022/05/06 03:05:06;;;;;;;44.83;27.80;;;11.20;99.90;;;;;;5133820;28;20284;-69
2022/05/06 03:07:32;;;;;;;48.83;28.93;;;11.20;99.90;;;;;;5133789;28;20281;-69
2022/05/06 03:09:58;;;;;;;52.97;29.97;;;11.20;99.90;;;;;;5132471;28;20315;-69
2022/05/06 03:12:26;;;;;;;49.67;29.57;;;11.30;99.90;;;;;;5132783;28;20043;-69
2022/05/06 03:14:52;;;;;;;59.73;32.80;;;11.30;99.90;;;;;;5132071;28;20043;-69
2022/05/06 03:17:18;;;;;;;50.20;30.57;;;11.30;99.90;;;;;;5132937;28;20697;-69
2022/05/06 03:19:44;;;;;;;55.00;31.90;;;11.30;99.90;;;;;;5133404;27;20320;-69
2022/05/06 03:22:10;;;;;;;63.90;33.83;;;11.30;99.90;;;;;;5137816;27;20504;-69
2022/05/06 03:24:35;;;;;;;61.60;33.23;;;11.30;99.90;;;;;;5136781;27;20049;-69
2022/05/06 03:27:01;;;;;;;55.90;32.87;;;11.30;99.90;;;;;;5137412;27;20457;-69
2022/05/06 03:29:27;;;;;;;65.50;34.37;;;11.30;99.90;;;;;;5136573;27;20051;-69
2022/05/06 03:31:53;;;;;;;59.20;34.30;;;11.20;99.90;;;;;;5136116;27;20368;-70
2022/05/06 03:34:20;;;;;;;57.03;34.03;;;11.20;99.90;;;;;;5137215;27;20451;-69
2022/05/06 03:36:46;;;;;;;57.77;34.10;;;11.20;99.90;;;;;;5137019;27;20281;-70
2022/05/06 03:39:12;;;;;;;137.37;38.87;;;11.30;99.90;;;;;;5137534;27;20316;-70
2022/05/06 03:41:38;;;;;;;79.90;35.00;;;11.30;99.90;;;;;;5136452;27;20384;-70
2022/05/06 03:44:06;;;;;;;60.63;35.23;;;11.30;99.90;;;;;;5137153;27;20280;-69
2022/05/06 03:46:33;;;;;;;65.63;34.07;;;11.30;99.90;;;;;;5136482;27;20424;-69
2022/05/06 03:49:01;;;;;;;69.90;34.43;;;11.30;99.90;;;;;;5119135;27;20364;-70
2022/05/06 03:51:31;;;;;;;59.20;35.17;;;11.30;99.90;;;;;;5137516;27;20272;-69
2022/05/06 03:53:57;;;;;;;61.47;34.37;;;11.30;99.90;;;;;;5135603;27;20320;-69
2022/05/06 03:56:24;;;;;;;68.43;35.87;;;11.30;99.90;;;;;;5136184;27;20281;-69
2022/05/06 03:58:51;;;;;;;79.63;35.67;;;11.30;99.90;;;;;;5118658;27;20299;-70
2022/05/06 04:01:19;;;;;;;59.30;36.13;;;11.30;99.90;;;;;;5137125;27;20309;-69
2022/05/06 04:03:47;;;;;;;71.10;37.40;;;11.30;99.90;;;;;;5118642;27;20387;-70
2022/05/06 04:06:14;;;;;;;58.13;35.60;;;11.40;99.90;;;;;;5136134;27;20396;-70
2022/05/06 04:08:43;;;;;;;73.87;36.83;;;11.40;99.90;;;;;;5137005;27;20281;-70
2022/05/06 04:11:10;;;;;;;85.57;38.47;;;11.40;99.90;;;;;;5135373;27;20320;-69
2022/05/06 04:13:36;;;;;;;63.07;40.07;;;11.40;99.90;;;;;;5135587;27;20812;-69
2022/05/06 04:16:02;;;;;;;70.20;38.83;;;11.40;99.90;;;;;;5136479;27;20323;-70
2022/05/06 04:18:28;;;;;;;104.77;39.10;;;11.40;99.90;;;;;;5137047;27;20308;-69
2022/05/06 04:23:38;;;;;;;64.37;36.70;;;11.50;99.90;;;;;;5135783;27;20043;-69
2022/05/06 04:26:08;;;;;;;165.07;39.93;;;11.50;99.90;;;;;;5136336;27;20296;-69
2022/05/06 04:28:35;;;;;;;56.97;34.57;;;11.50;99.90;;;;;;5118508;27;20050;-69
2022/05/06 04:31:02;;;;;;;61.63;34.63;;;11.50;99.90;;;;;;5134916;27;20288;-70
2022/05/06 04:33:28;;;;;;;66.83;35.40;;;11.50;99.90;;;;;;5135430;27;20293;-70
2022/05/06 04:35:56;;;;;;;112.37;36.30;;;11.50;99.90;;;;;;5135142;27;20353;-70
2022/05/06 04:38:22;;;;;;;51.63;32.83;;;11.50;99.90;;;;;;5136593;27;20334;-70
2022/05/06 04:40:49;;;;;;;97.77;29.43;;;11.50;99.90;;;;;;5136283;27;20281;-72
2022/05/06 04:43:18;;;;;;;83.87;29.17;;;11.50;99.90;;;;;;5136339;27;20296;-69
2022/05/06 04:45:43;;;;;;;86.93;30.13;;;11.50;99.90;;;;;;5136301;27;20280;-69
2022/05/06 04:48:11;;;;;;;57.97;29.13;;;11.50;99.90;;;;;;5135907;27;20269;-69
2022/05/06 04:50:38;;;;;;;110.17;30.73;;;11.40;99.90;;;;;;5136162;27;20049;-69
2022/05/06 04:53:07;;;;;;;71.97;30.40;;;11.50;99.90;;;;;;5134843;27;20305;-69
2022/05/06 04:55:37;;;;;;;73.63;31.73;;;11.50;99.90;;;;;;5136361;27;20678;-69
2022/05/06 04:58:03;;;;;;;144.03;32.33;;;11.50;99.90;;;;;;5135821;27;20285;-70
2022/05/06 05:00:30;;;;;;;47.77;30.20;;;11.50;99.90;;;;;;5134955;27;20281;-69
2022/05/06 05:02:55;;;;;;;128.90;33.30;;;11.60;99.90;;;;;;5134657;27;20292;-71
2022/05/06 05:05:21;;;;;;;49.40;29.83;;;11.60;99.90;;;;;;5134929;27;20296;-71
2022/05/06 05:07:47;;;;;;;78.47;31.77;;;11.60;99.90;;;;;;5134829;27;20035;-70
2022/05/06 05:10:13;;;;;;;46.83;26.70;;;11.70;99.90;;;;;;5134517;27;20054;-70
2022/05/06 05:12:38;;;;;;;97.27;27.73;;;11.70;99.90;;;;;;5135788;27;20047;-70
2022/05/06 05:15:05;;;;;;;47.13;26.73;;;11.70;99.90;;;;;;5134224;27;20487;-70
2022/05/06 05:17:30;;;;;;;50.67;26.63;;;11.70;99.90;;;;;;5135913;27;20058;-70
2022/05/06 05:19:56;;;;;;;48.43;26.27;;;11.70;99.90;;;;;;5117151;27;20628;-71
2022/05/06 05:22:22;;;;;;;75.80;26.57;;;11.80;99.90;;;;;;5117494;27;20047;-70
2022/05/06 05:24:48;;;;;;;42.20;23.80;;;11.80;99.90;;;;;;5135539;27;20051;-70
2022/05/06 05:27:14;;;;;;;42.13;22.73;;;11.80;99.90;;;;;;5134039;27;20142;-70
2022/05/06 05:29:40;;;;;;;46.23;19.63;;;11.80;99.90;;;;;;5135626;27;20081;-70
2022/05/06 05:32:07;;;;;;;48.23;19.03;;;11.80;99.90;;;;;;5133913;27;20047;-70
2022/05/06 05:34:33;;;;;;;40.47;19.00;;;11.70;99.90;;;;;;5134048;27;20301;-70
2022/05/06 05:36:59;;;;;;;25.30;17.17;;;11.70;99.90;;;;;;5134949;27;20277;-70
2022/05/06 05:39:24;;;;;;;30.87;17.80;;;11.70;99.90;;;;;;5135419;27;20042;-70
2022/05/06 05:41:50;;;;;;;30.27;17.77;;;11.70;99.90;;;;;;5134289;27;20043;-70
2022/05/06 05:49:48;;;;;;;23.10;14.98;;;11.70;99.90;;;;;;5135275;27;20280;-70
2022/05/06 05:52:14;;;;;;;20.80;16.10;;;11.80;99.90;;;;;;5116408;27;20506;-70
2022/05/06 05:54:40;;;;;;;21.70;15.33;;;11.80;99.90;;;;;;5133173;27;20313;-70
2022/05/06 05:57:06;;;;;;;22.57;14.03;;;11.80;99.90;;;;;;5134544;27;20054;-70
2022/05/06 05:59:35;;;;;;;22.20;14.73;;;11.80;99.90;;;;;;5134807;27;20342;-70
2022/05/06 06:02:02;;;;;;;21.37;13.43;;;11.80;99.90;;;;;;5133512;27;20637;-71
2022/05/06 06:04:28;;;;;;;34.67;15.50;;;11.90;99.90;;;;;;5134670;27;20287;-70
2022/05/06 06:06:53;;;;;;;22.77;14.70;;;11.90;99.90;;;;;;5134595;27;20281;-69
2022/05/06 06:09:22;;;;;;;18.33;13.00;;;;;;;;;;5133380;27;20395;-69
2022/05/06 06:11:51;;;;;;;25.53;13.47;;;12.00;99.90;;;;;;5116705;27;20380;-69
2022/05/06 06:14:17;;;;;;;21.17;13.00;;;12.20;99.90;;;;;;5133150;27;20324;-69
2022/05/06 06:16:44;;;;;;;22.30;12.00;;;12.10;99.90;;;;;;5134483;27;20288;-69
2022/05/06 06:19:10;;;;;;;11.60;9.40;;;12.10;99.90;;;;;;5134130;27;20273;-69
2022/05/06 06:21:36;;;;;;;13.30;8.97;;;12.10;99.90;;;;;;5134452;27;20280;-69
2022/05/06 06:24:02;;;;;;;10.80;8.60;;;12.20;99.90;;;;;;5116099;27;20291;-69
2022/05/06 06:26:28;;;;;;;11.53;8.10;;;12.20;99.90;;;;;;5134336;27;20359;-69
2022/05/06 06:28:54;;;;;;;12.17;7.83;;;12.20;99.90;;;;;;5134344;27;20804;-69
2022/05/06 06:31:20;;;;;;;10.07;7.70;;;12.30;99.90;;;;;;5132800;27;20050;-69
2022/05/06 06:33:46;;;;;;;9.37;7.20;;;12.30;99.90;;;;;;5134141;27;20695;-69
2022/05/06 06:36:12;;;;;;;9.87;7.20;;;12.40;99.90;;;;;;5134053;27;20096;-69
2022/05/06 06:38:37;;;;;;;10.03;8.43;;;12.40;99.90;;;;;;5116050;27;20082;-69
2022/05/06 06:41:04;;;;;;;10.67;7.97;;;12.50;99.90;;;;;;5133815;27;20041;-69
2022/05/06 06:43:29;;;;;;;11.07;8.53;;;12.50;99.90;;;;;;5134335;27;20050;-69
2022/05/06 06:45:56;;;;;;;10.90;8.63;;;12.50;99.90;;;;;;5134194;27;20285;-69
2022/05/06 06:48:24;;;;;;;12.70;8.60;;;12.40;99.90;;;;;;5133700;27;20051;-69
2022/05/06 06:50:50;;;;;;;10.30;8.83;;;12.50;99.90;;;;;;5132839;27;20653;-69
2022/05/06 06:53:16;;;;;;;10.37;9.27;;;12.50;99.90;;;;;;5133604;27;20297;-69
2022/05/06 06:55:41;;;;;;;11.80;9.63;;;12.50;99.90;;;;;;5133520;27;20059;-70
2022/05/06 06:58:07;;;;;;;11.63;10.13;;;12.60;99.90;;;;;;5132634;27;20058;-68
2022/05/06 07:00:33;;;;;;;13.03;11.10;;;12.60;99.90;;;;;;5132932;27;20399;-68
2022/05/06 07:02:59;;;;;;;11.50;10.00;;;12.60;99.90;;;;;;5115927;28;20285;-68
2022/05/06 07:05:25;;;;;;;12.57;10.80;;;12.60;99.90;;;;;;5132386;28;20051;-68
2022/05/06 07:11:52;;;;;;;12.87;11.47;;;12.60;99.90;;;;;;5133951;28;20471;-69
2022/05/06 07:13:23;;;;;;;12.90;11.60;;;12.70;99.90;;;;;;5118118;28;20309;-69
2022/05/06 07:15:49;;;;;;;12.77;11.47;;;12.70;99.90;;;;;;5133409;28;20784;-69
2022/05/06 07:18:15;;;;;;;11.30;10.07;;;12.70;99.90;;;;;;5133419;28;20316;-69
2022/05/06 07:20:42;;;;;;;9.90;8.90;;;12.80;99.90;;;;;;5132428;28;20053;-69
2022/05/06 07:23:08;;;;;;;8.90;8.00;;;13.10;99.90;;;;;;5132188;28;20051;-69
2022/05/06 07:25:34;;;;;;;9.33;8.10;;;13.60;99.90;;;;;;5133673;28;20284;-69
2022/05/06 07:28:00;;;;;;;8.67;7.77;;;13.90;99.90;;;;;;5133641;28;20356;-69
2022/05/06 07:30:26;;;;;;;8.70;7.80;;;14.10;99.90;;;;;;5133035;27;20070;-69
2022/05/06 07:32:51;;;;;;;7.70;6.90;;;14.20;99.90;;;;;;5132399;28;20082;-69
2022/05/06 07:35:17;;;;;;;8.70;7.80;;;14.10;99.90;;;;;;5132457;28;20432;-69
2022/05/06 07:37:43;;;;;;;10.10;8.97;;;14.20;99.90;;;;;;5133806;28;20089;-69
2022/05/06 07:40:10;;;;;;;8.50;7.60;;;14.20;99.90;;;;;;5132433;28;20431;-72
2022/05/06 07:42:37;;;;;;;8.67;7.80;;;14.20;99.90;;;;;;5132369;28;20054;-69
2022/05/06 07:45:04;;;;;;;9.23;8.30;;;14.30;99.90;;;;;;5132673;28;20300;-69
2022/05/06 07:47:30;;;;;;;8.83;7.70;;;14.40;99.90;;;;;;5132161;28;20293;-68
2022/05/06 07:49:56;;;;;;;9.53;8.53;;;14.70;99.90;;;;;;5132459;28;20288;-75
2022/05/06 07:52:22;;;;;;;9.00;8.10;;;15.10;99.90;;;;;;5132222;28;20289;-69
2022/05/06 07:54:48;;;;;;;8.17;7.37;;;15.90;99.90;;;;;;5133376;28;20051;-69
2022/05/06 07:57:13;;;;;;;8.80;7.90;;;16.30;99.90;;;;;;5133001;28;20055;-69
2022/05/06 07:59:39;;;;;;;8.30;7.40;;;;;;;;;;5132379;28;20050;-69
2022/05/06 08:04:50;;;;;;;7.35;6.57;;;16.50;99.90;;;;;;5133349;28;20273;-69
2022/05/06 08:07:16;;;;;;;9.50;7.97;;;16.40;99.90;;;;;;5134164;27;20054;-69
2022/05/06 08:09:42;;;;;;;8.30;7.40;;;16.40;99.90;;;;;;5136055;27;20051;-68
2022/05/06 08:12:09;;;;;;;8.80;7.87;;;16.30;99.90;;;;;;5136953;27;20047;-68
2022/05/06 08:14:35;;;;;;;8.23;7.20;;;16.20;99.90;;;;;;5136467;27;20047;-69
2022/05/06 08:17:02;;;;;;;7.70;6.60;;;16.10;99.90;;;;;;5136854;27;20323;-68
2022/05/06 08:19:27;;;;;;;9.00;7.80;;;16.00;99.90;;;;;;5135356;27;20284;-69
2022/05/06 08:21:53;;;;;;;8.93;8.07;;;15.90;99.90;;;;;;5135731;27;20108;-70
2022/05/06 08:24:20;;;;;;;7.80;7.00;;;15.90;99.90;;;;;;5136464;27;20074;-70
2022/05/06 08:26:46;;;;;;;8.77;7.33;;;15.80;99.90;;;;;;5136713;27;20047;-69
2022/05/06 08:29:12;;;;;;;8.10;6.07;;;15.80;99.90;;;;;;5136560;27;20146;-68
2022/05/06 08:31:37;;;;;;;7.80;6.60;;;15.90;99.90;;;;;;5136502;27;20494;-69
2022/05/06 08:34:08;;;;;;;8.23;6.33;;;16.00;99.90;;;;;;5136518;27;20335;-70
2022/05/06 08:36:43;;;;;;;7.40;6.43;;;16.10;99.90;;;;;;5136213;27;20047;-70
2022/05/06 08:39:11;;;;;;;8.43;6.72;;;16.20;99.90;;;;;;5135482;27;20043;-70
2022/05/06 08:41:38;;;;;;;7.67;6.70;;;16.30;99.90;;;;;;5136132;27;20099;-72
2022/05/06 08:52:29;;;;;;;7.10;6.37;;;16.80;99.90;;;;;;5135870;27;19919;-71
2022/05/06 08:54:55;;;;;;;7.53;6.10;;;16.90;99.90;;;;;;5134684;27;20059;-70
2022/05/06 08:57:21;;;;;;;6.90;6.20;;;17.00;99.90;;;;;;5134881;27;20484;-70
2022/05/06 08:59:52;;;;;;;8.37;6.63;;;17.20;99.90;;;;;;5134799;27;20125;-70
2022/05/06 09:02:18;;;;;;;8.53;6.97;;;17.50;99.90;;;;;;5134862;27;20045;-71
2022/05/06 09:04:44;;;;;;;8.43;6.23;;;17.40;99.90;;;;;;5135926;27;20075;-71
2022/05/06 09:07:21;;;;;;;6.07;5.23;;;17.40;99.90;;;;;;5117887;27;20047;-70
2022/05/06 09:10:09;;;;;;;6.93;5.70;;;17.40;99.90;;;;;;5118063;27;20047;-71
2022/05/06 09:12:41;;;;;;;7.63;5.57;;;17.30;99.90;;;;;;5135803;27;20429;-71
2022/05/06 09:18:03;;;;;;;7.93;5.97;;;17.20;99.90;;;;;;5133898;27;20094;-69
2022/05/06 09:20:29;;;;;;;6.80;4.90;;;17.10;99.90;;;;;;5135236;27;20043;-69
2022/05/06 09:22:55;;;;;;;7.37;4.57;;;17.10;99.90;;;;;;5135803;27;20051;-68
2022/05/06 09:25:39;;;;;;;7.63;5.13;;;17.20;99.90;;;;;;5134295;27;20394;-69
2022/05/06 09:28:07;;;;;;;6.47;4.90;;;17.30;99.90;;;;;;5134646;27;20058;-68
2022/05/06 09:30:34;;;;;;;6.97;4.70;;;17.40;99.90;;;;;;5135170;27;20103;-65
2022/05/06 09:33:00;;;;;;;6.80;4.70;;;17.60;99.90;;;;;;5134120;27;20042;-66
2022/05/06 09:35:28;;;;;;;6.13;4.90;;;17.70;99.90;;;;;;5134021;27;20096;-66
2022/05/06 09:37:54;;;;;;;6.00;4.77;;;17.70;99.90;;;;;;5134518;27;20043;-65
2022/05/06 09:40:30;;;;;;;6.17;4.53;;;17.80;99.90;;;;;;5134125;27;20043;-65
2022/05/06 09:42:59;;;;;;;6.37;4.57;;;;;;;;;;5134940;27;20112;-70
2022/05/06 09:45:30;;;;;;;4.57;3.43;;;;;;;;;;5132717;27;20100;-66
2022/05/06 09:48:00;;;;;;;5.97;4.00;;;18.20;99.90;;;;;;5133881;27;20204;-65
2022/05/06 09:50:38;;;;;;;5.37;3.73;;;18.20;99.90;;;;;;5134627;27;20130;-65
2022/05/06 09:53:08;;;;;;;6.30;3.73;;;18.20;99.90;;;;;;5135019;27;20058;-68
2022/05/06 09:55:44;;;;;;;5.07;3.17;;;18.20;99.90;;;;;;5134667;27;20048;-68
2022/05/06 09:58:12;;;;;;;5.40;2.77;;;18.30;99.90;;;;;;5133937;27;20054;-67
2022/05/06 10:00:40;;;;;;;7.27;3.10;;;18.40;99.90;;;;;;5134523;27;20054;-68
2022/05/06 10:03:08;;;;;;;5.40;3.10;;;18.50;99.60;;;;;;5134777;27;20051;-67
2022/05/06 10:05:36;;;;;;;4.87;3.00;;;18.50;99.00;;;;;;5134436;27;20043;-67
2022/05/06 10:08:03;;;;;;;5.77;3.07;;;18.50;99.90;;;;;;5134419;27;20503;-67
2022/05/06 10:10:33;;;;;;;5.20;3.00;;;18.50;99.90;;;;;;5134384;27;20051;-68
2022/05/06 10:13:03;;;;;;;7.17;3.07;;;18.40;99.90;;;;;;5133352;27;20076;-67
2022/05/06 10:15:30;;;;;;;5.77;3.30;;;18.40;99.90;;;;;;5134315;27;20051;-68
2022/05/06 10:17:57;;;;;;;5.27;3.10;;;18.30;99.90;;;;;;5133348;27;20138;-66
2022/05/06 10:20:35;;;;;;;5.87;3.17;;;18.20;99.90;;;;;;5133386;27;20043;-67
2022/05/06 10:23:12;;;;;;;5.83;3.03;;;18.10;99.90;;;;;;5134539;27;20051;-68
2022/05/06 10:25:40;;;;;;;6.80;3.30;;;18.10;99.90;;;;;;5134090;27;20039;-67
2022/05/06 10:34:15;;;;;;;7.33;3.70;;;18.00;99.90;;;;;;5134166;27;20043;-67
2022/05/06 10:36:44;;;;;;;6.23;4.10;;;;;;;;;;5134031;27;20043;-68
2022/05/06 10:39:21;;;;;;;7.33;4.17;;;17.90;99.90;;;;;;5132927;27;20087;-68
2022/05/06 10:42:00;;;;;;;5.50;4.10;;;17.80;97.90;;;;;;5132825;27;20051;-69
2022/05/06 10:44:42;;;;;;;9.57;4.63;;;17.80;99.90;;;;;;5134207;27;20066;-68
2022/05/06 10:47:13;;;;;;;7.37;4.27;;;17.80;99.90;;;;;;5134118;27;20107;-68
2022/05/06 10:49:39;;;;;;;7.13;4.97;;;17.80;99.90;;;;;;5133771;27;20047;-68
2022/05/06 10:52:14;;;;;;;7.67;4.73;;;17.90;99.90;;;;;;5132748;27;20440;-69
2022/05/06 10:54:47;;;;;;;8.70;5.28;;;17.90;99.90;;;;;;5133455;27;20087;-68
2022/05/06 10:57:14;;;;;;;6.10;4.10;;;18.00;99.90;;;;;;5133948;27;20487;-67
2022/05/06 10:59:52;;;;;;;7.00;4.50;;;18.20;99.90;;;;;;5132414;27;20079;-70
2022/05/06 11:02:31;;;;;;;7.90;4.57;;;18.40;99.90;;;;;;5133841;28;20043;-74
2022/05/06 11:05:01;;;;;;;10.23;6.00;;;;;;;;;;5132633;28;20054;-69
2022/05/06 11:07:28;;;;;;;8.50;5.07;;;;;;;;;;5133945;28;20130;-70
2022/05/06 11:09:54;;;;;;;10.13;5.07;;;;;;;;;;5115477;28;20043;-70
2022/05/06 11:12:54;;;;;;;6.83;4.90;;;18.60;99.90;;;;;;5132860;28;20107;-70
2022/05/06 11:15:31;;;;;;;8.03;5.17;;;18.50;99.90;;;;;;5133652;28;20049;-70
2022/05/06 11:17:59;;;;;;;8.60;4.97;;;18.40;99.90;;;;;;5133546;28;20125;-70
2022/05/06 11:20:27;;;;;;;9.80;4.67;;;18.40;99.90;;;;;;5133479;28;20550;-70
2022/05/06 11:22:59;;;;;;;6.60;4.10;;;18.30;99.90;;;;;;5133498;27;20046;-70
2022/05/06 11:25:34;;;;;;;6.83;3.50;;;18.40;99.90;;;;;;5133722;28;20082;-70
2022/05/06 11:28:02;;;;;;;6.40;4.23;;;18.40;99.90;;;;;;5134054;28;20062;-68
2022/05/06 11:30:29;;;;;;;9.53;4.20;;;18.20;99.90;;;;;;5132727;28;20130;-68
2022/05/06 11:33:00;;;;;;;5.83;4.13;;;18.30;99.90;;;;;;5133745;27;20059;-68
2022/05/06 11:35:45;;;;;;;7.37;4.50;;;18.20;99.90;;;;;;5133639;28;20066;-68
2022/05/06 11:38:11;;;;;;;7.25;3.78;;;18.30;99.90;;;;;;5133892;28;20051;-69
2022/05/06 11:40:38;;;;;;;7.03;4.33;;;18.20;99.90;;;;;;5133272;27;20509;-67
2022/05/06 11:43:19;;;;;;;7.70;4.30;;;18.20;99.90;;;;;;5137467;27;20047;-66
2022/05/06 11:48:44;;;;;;;5.57;3.47;;;18.40;99.90;;;;;;5137250;27;20043;-69
2022/05/06 11:51:33;;;;;;;6.73;2.33;;;18.30;99.90;;;;;;5137549;27;20047;-68
2022/05/06 11:54:00;;;;;;;6.43;3.13;;;18.50;99.90;;;;;;5137075;27;20078;-69
2022/05/06 11:56:27;;;;;;;6.13;3.57;;;;;;;;;;5135819;27;20051;-69
2022/05/06 11:58:54;;;;;;;5.87;2.93;;;;;;;;;;5137230;27;20047;-69
2022/05/06 12:01:33;;;;;;;4.67;3.20;;;;;;;;;;5136968;27;20483;-68
2022/05/06 12:04:03;;;;;;;7.03;3.70;;;;;;;;;;5137003;27;20090;-69
2022/05/06 12:06:31;;;;;;;5.30;3.50;;;19.40;99.90;;;;;;5137046;27;20134;-69
2022/05/06 12:09:14;;;;;;;6.97;4.20;;;;;;;;;;5136680;27;20047;-68
2022/05/06 12:11:41;;;;;;;6.03;4.37;;;;;;;;;;5135884;27;20039;-71
2022/05/06 12:14:08;;;;;;;7.40;4.97;;;;;;;;;;5136804;27;20050;-69
2022/05/06 12:16:34;;;;;;;6.47;4.43;;;;;;;;;;5137010;27;20099;-69
2022/05/06 12:19:00;;;;;;;6.77;4.50;;;19.80;99.90;;;;;;5136572;27;20043;-69
2022/05/06 12:21:27;;;;;;;7.20;4.60;;;19.70;99.60;;;;;;5136886;27;20050;-68
2022/05/06 12:23:58;;;;;;;8.93;4.77;;;;;;;;;;5136508;27;20399;-69
2022/05/06 12:26:35;;;;;;;8.13;4.93;;;19.60;91.00;;;;;;5135454;27;20539;-68
2022/05/06 12:29:03;;;;;;;8.17;5.63;;;19.70;91.10;;;;;;5136394;27;20043;-68
2022/05/06 12:31:33;;;;;;;7.33;5.67;;;19.80;90.60;;;;;;5136610;27;20103;-69
2022/05/06 12:34:09;;;;;;;8.90;6.20;;;19.80;90.40;;;;;;5135018;27;20046;-69
2022/05/06 12:36:38;;;;;;;8.97;5.50;;;19.80;90.30;;;;;;5136649;27;20047;-69
2022/05/06 12:39:20;;;;;;;7.83;6.83;;;19.70;90.50;;;;;;5136284;27;20051;-69
2022/05/06 12:41:46;;;;;;;8.30;6.60;;;19.70;91.10;;;;;;5135304;27;20091;-69
2022/05/06 12:44:20;;;;;;;10.87;7.57;;;19.70;91.10;;;;;;5134732;27;20145;-69
2022/05/06 12:46:47;;;;;;;10.65;8.10;;;19.70;91.00;;;;;;5135208;27;20399;-69
2022/05/06 12:51:57;;;;;;;12.13;8.55;;;19.70;91.90;;;;;;5136021;27;20066;-65
2022/05/06 12:54:26;;;;;;;11.17;9.07;;;19.70;91.70;;;;;;5134864;27;20079;-65
2022/05/06 12:56:51;;;;;;;14.07;10.70;;;19.80;91.20;;;;;;5135955;27;20043;-66
2022/05/06 12:59:17;;;;;;;16.47;9.83;;;19.80;91.10;;;;;;5136116;27;20047;-66
2022/05/06 13:01:43;;;;;;;11.20;9.70;;;19.90;90.80;;;;;;5134958;27;20050;-66
2022/05/06 13:04:09;;;;;;;11.50;10.30;;;19.90;89.90;;;;;;5135821;27;20043;-66
2022/05/06 13:06:35;;;;;;;12.27;10.50;;;19.90;89.40;;;;;;5135204;27;20172;-65
2022/05/06 13:09:00;;;;;;;11.90;10.13;;;19.90;89.50;;;;;;5135690;27;20454;-70
2022/05/06 13:11:26;;;;;;;12.70;10.13;;;19.90;89.80;;;;;;5135864;27;20043;-70
2022/05/06 13:13:52;;;;;;;14.40;11.50;;;19.90;87.90;;;;;;5135551;27;20043;-70
2022/05/06 13:16:18;;;;;;;16.90;10.73;;;19.90;86.60;;;;;;5134890;27;20047;-70
2022/05/06 13:18:44;;;;;;;12.67;9.33;;;19.90;89.30;;;;;;5134523;27;20110;-70
2022/05/06 13:21:10;;;;;;;13.20;9.83;;;19.90;86.10;;;;;;5135381;27;20043;-70
2022/05/06 13:23:37;;;;;;;12.43;9.30;;;19.90;84.40;;;;;;5135617;27;20092;-70
2022/05/06 13:26:03;;;;;;;13.53;10.90;;;19.90;86.40;;;;;;5134270;27;20394;-70